Terminal Aerodrome Forecast
Issued by NWS

Home | Current Version | Previous Version | Graphics & Text | Print | Product List | Glossary On
Versions: 1 2 3 4 5 6 7 8 9 10 11 12 13
000
FTUS43 KGRB 241700
TAFMTW
TAF
KMTW 241721Z 2418/2518 13008KT P6SM BKN120
     FM242200 09008KT P6SM VCSH OVC060
      TEMPO 2422/2502 -SHRA
     FM250700 07010G18KT P6SM OVC050
     FM251500 06015G24KT P6SM BKN080=

USA.gov is the U.S. government's official web portal to all federal, state and local government web resources and services.